Time;durP1;ratioP1;P1;durP2;ratioP2;P2;SDS_P1;SDS_P2;PMS_P1;PMS_P2;Temp;Humidity;BMP_temperature;BMP_pressure;BME280_temperature;BME280_humidity;BME280_pressure;Samples;Min_cycle;Max_cycle;Signal;HPM_P1;HPM_P2
2021/01/05 00:00:22;;;;;;;7.72;4.60;;;2.10;97.10;;;;;;5066652;28;20032;-67
2021/01/05 00:02:50;;;;;;;8.02;4.80;;;2.10;97.20;;;;;;5067857;28;20024;-67
2021/01/05 00:05:15;;;;;;;7.88;5.07;;;2.10;97.10;;;;;;5066353;28;20076;-67
2021/01/05 00:07:42;;;;;;;8.25;4.63;;;2.10;97.10;;;;;;5068110;28;20123;-67
2021/01/05 00:10:08;;;;;;;8.63;4.45;;;2.10;97.10;;;;;;5071866;28;20116;-67
2021/01/05 00:12:34;;;;;;;9.07;4.80;;;2.10;97.10;;;;;;5069351;28;20065;-66
2021/01/05 00:15:00;;;;;;;7.35;4.38;;;2.10;97.10;;;;;;5073645;28;20039;-66
2021/01/05 00:17:26;;;;;;;7.53;4.47;;;2.10;97.10;;;;;;5086010;28;20503;-67
2021/01/05 00:19:52;;;;;;;7.90;4.88;;;2.10;97.00;;;;;;5067094;28;20429;-67
2021/01/05 00:22:18;;;;;;;6.53;4.00;;;2.10;97.00;;;;;;5086607;28;20502;-67
2021/01/05 00:24:44;;;;;;;6.30;3.72;;;2.10;96.90;;;;;;5087247;28;20028;-66
2021/01/05 00:27:10;;;;;;;6.50;4.00;;;2.10;96.90;;;;;;5085172;28;20417;-67
2021/01/05 00:29:35;;;;;;;8.70;4.97;;;2.10;96.80;;;;;;5086006;28;20123;-67
2021/01/05 00:32:10;;;;;;;7.38;4.38;;;2.10;96.80;;;;;;5087717;28;20127;-67
2021/01/05 00:34:36;;;;;;;7.15;3.67;;;2.10;96.80;;;;;;5087640;28;20024;-67
2021/01/05 00:37:02;;;;;;;8.23;4.15;;;2.10;96.80;;;;;;5087985;28;20139;-66
2021/01/05 00:39:28;;;;;;;6.68;3.90;;;2.10;96.80;;;;;;5082677;28;20028;-66
2021/01/05 00:41:53;;;;;;;7.18;4.13;;;2.10;96.70;;;;;;5081715;28;20040;-67
2021/01/05 00:44:19;;;;;;;5.43;3.35;;;2.10;96.60;;;;;;5081202;28;20445;-66
2021/01/05 00:46:44;;;;;;;6.25;3.30;;;2.10;96.60;;;;;;5086957;28;20031;-67
2021/01/05 00:49:10;;;;;;;6.65;3.85;;;2.10;96.60;;;;;;5078935;28;20118;-66
2021/01/05 00:51:36;;;;;;;6.07;3.67;;;2.10;96.60;;;;;;5072594;28;20394;-67
2021/01/05 00:54:01;;;;;;;6.30;3.67;;;2.10;96.60;;;;;;5079457;28;20032;-66
2021/01/05 00:56:27;;;;;;;7.43;4.22;;;2.10;96.70;;;;;;5088523;28;20057;-67
2021/01/05 00:58:53;;;;;;;7.45;3.92;;;2.10;96.80;;;;;;5064689;28;20243;-67
2021/01/05 01:01:22;;;;;;;6.95;4.07;;;2.10;96.80;;;;;;5073141;28;20363;-67
2021/01/05 01:03:49;;;;;;;8.27;4.07;;;2.10;96.90;;;;;;5066468;28;20040;-67
2021/01/05 01:06:15;;;;;;;7.20;3.97;;;2.10;96.90;;;;;;5085371;28;20031;-67
2021/01/05 01:08:41;;;;;;;7.68;4.30;;;2.10;97.00;;;;;;5084778;28;20050;-66
2021/01/05 01:11:07;;;;;;;7.53;4.47;;;2.10;97.00;;;;;;5087678;28;20532;-67
2021/01/05 01:13:32;;;;;;;7.50;4.53;;;2.10;97.00;;;;;;5086913;28;20042;-66
2021/01/05 01:15:58;;;;;;;7.72;4.22;;;2.10;97.10;;;;;;5086447;28;20532;-66
2021/01/05 01:18:24;;;;;;;7.28;4.20;;;2.00;97.10;;;;;;5061712;28;20055;-66
2021/01/05 01:20:49;;;;;;;8.25;4.25;;;2.10;97.20;;;;;;5067441;28;20370;-66
2021/01/05 01:23:15;;;;;;;7.50;4.40;;;2.10;97.20;;;;;;5074596;28;20062;-67
2021/01/05 01:25:41;;;;;;;7.47;4.03;;;2.00;97.20;;;;;;5068118;28;20032;-66
2021/01/05 01:28:07;;;;;;;8.40;4.25;;;2.00;97.20;;;;;;5075402;28;20547;-67
2021/01/05 01:30:32;;;;;;;7.55;4.13;;;2.00;97.30;;;;;;5086644;28;20544;-66
2021/01/05 01:32:58;;;;;;;9.35;4.35;;;2.00;97.30;;;;;;5086357;28;20085;-66
2021/01/05 01:35:23;;;;;;;7.60;4.50;;;2.00;97.30;;;;;;5085948;28;20113;-67
2021/01/05 01:37:49;;;;;;;5.47;3.35;;;2.00;97.30;;;;;;5085659;28;20124;-67
2021/01/05 01:40:27;;;;;;;6.47;3.83;;;2.00;97.30;;;;;;5087289;28;20051;-67
2021/01/05 01:42:52;;;;;;;7.18;4.00;;;2.00;97.30;;;;;;5083800;28;20130;-66
2021/01/05 01:45:23;;;;;;;9.57;3.92;;;2.00;97.30;;;;;;5087561;28;20073;-66
2021/01/05 01:47:50;;;;;;;7.75;3.97;;;2.00;97.40;;;;;;5068431;28;20089;-65
2021/01/05 01:50:22;;;;;;;7.57;3.92;;;2.00;97.40;;;;;;5074969;28;20064;-67
2021/01/05 01:53:29;;;;;;;8.20;3.47;;;2.00;97.40;;;;;;5075967;28;20116;-67
2021/01/05 01:56:03;;;;;;;6.85;3.90;;;1.90;97.40;;;;;;5034649;28;20040;-67
2021/01/05 01:58:46;;;;;;;5.15;3.30;;;1.90;97.30;;;;;;5067091;28;20032;-67
2021/01/05 02:01:34;;;;;;;6.40;3.70;;;1.90;97.30;;;;;;5081806;28;20107;-66
2021/01/05 02:04:25;;;;;;;6.30;3.03;;;1.80;97.20;;;;;;5083956;28;20022;-66
2021/01/05 02:07:09;;;;;;;;;;;1.80;97.10;;;;;;5067361;28;20029;-67
2021/01/05 02:09:53;;;;;;;5.13;2.85;;;1.80;97.10;;;;;;5084210;28;19930;-67
2021/01/05 02:12:19;;;;;;;6.47;3.40;;;1.80;97.10;;;;;;5076337;28;20116;-66
2021/01/05 02:15:26;;;;;;;6.22;3.22;;;1.80;97.10;;;;;;5084646;28;20114;-66
2021/01/05 02:18:12;;;;;;;5.90;3.50;;;1.90;97.20;;;;;;5083582;28;20490;-67
2021/01/05 02:20:52;;;;;;;5.22;2.95;;;1.90;97.20;;;;;;5085767;28;20107;-67
2021/01/05 02:23:47;;;;;;;6.40;3.83;;;1.90;97.20;;;;;;5088153;28;20416;-66
2021/01/05 02:26:18;;;;;;;6.00;3.50;;;1.90;97.20;;;;;;5067712;28;20395;-66
2021/01/05 02:28:58;;;;;;;6.60;3.53;;;1.90;97.20;;;;;;5082282;28;20172;-66
2021/01/05 02:31:30;;;;;;;7.80;3.78;;;1.90;97.30;;;;;;5085644;28;20074;-66
2021/01/05 02:34:08;;;;;;;5.53;3.38;;;1.90;97.30;;;;;;5063578;28;20460;-67
2021/01/05 02:36:39;;;;;;;5.75;3.50;;;1.90;97.30;;;;;;5072286;28;20192;-66
2021/01/05 02:39:07;;;;;;;;;;;1.90;97.30;;;;;;5085911;28;20050;-66
2021/01/05 02:42:17;;;;;;;10.23;3.75;;;1.90;97.30;;;;;;5084604;28;20042;-67
2021/01/05 02:45:01;;;;;;;6.15;3.53;;;1.90;97.30;;;;;;5049527;28;20043;-66
2021/01/05 02:47:38;;;;;;;6.38;3.58;;;1.80;97.30;;;;;;5083637;28;20024;-67
2021/01/05 02:50:16;;;;;;;6.53;3.67;;;1.90;97.40;;;;;;5055317;28;20093;-66
2021/01/05 02:53:07;;;;;;;6.15;3.40;;;1.80;97.40;;;;;;5084258;28;20092;-67
2021/01/05 02:56:03;;;;;;;5.47;3.20;;;1.90;97.40;;;;;;5085443;28;20046;-67
2021/01/05 02:58:52;;;;;;;6.55;3.78;;;1.80;97.40;;;;;;5082503;28;20456;-67
2021/01/05 03:01:57;;;;;;;6.05;3.65;;;1.80;97.40;;;;;;5084325;28;20036;-67
2021/01/05 03:04:23;;;;;;;6.47;3.42;;;1.90;97.40;;;;;;5084020;28;20040;-66
2021/01/05 03:06:54;;;;;;;6.25;3.20;;;1.80;97.40;;;;;;5083998;28;20127;-67
2021/01/05 03:09:34;;;;;;;6.32;3.58;;;1.90;97.40;;;;;;5083161;28;20400;-67
2021/01/05 03:12:05;;;;;;;7.28;3.75;;;1.80;97.40;;;;;;5085305;28;20034;-66
2021/01/05 03:14:56;;;;;;;6.07;3.40;;;1.80;97.40;;;;;;5092250;28;20062;-67
2021/01/05 03:17:33;;;;;;;7.97;3.97;;;1.80;97.40;;;;;;5071281;28;21321;-66
2021/01/05 03:20:19;;;;;;;7.00;4.32;;;1.80;97.40;;;;;;5088445;28;20185;-66
2021/01/05 03:23:06;;;;;;;6.53;3.55;;;1.80;97.40;;;;;;5088749;28;20481;-66
2021/01/05 03:25:39;;;;;;;6.32;3.33;;;1.80;97.40;;;;;;5084529;28;20055;-66
2021/01/05 03:28:08;;;;;;;5.78;3.47;;;1.80;97.40;;;;;;5084892;28;20146;-66
2021/01/05 03:30:42;;;;;;;5.00;3.25;;;1.80;97.40;;;;;;5071084;28;20111;-67
2021/01/05 03:33:07;;;;;;;5.75;3.35;;;1.80;97.40;;;;;;5068565;28;20130;-66
2021/01/05 03:35:33;;;;;;;5.72;3.20;;;1.80;97.40;;;;;;5089562;28;20469;-66
2021/01/05 03:37:59;;;;;;;5.10;3.00;;;1.80;97.40;;;;;;5086670;28;20032;-67
2021/01/05 03:40:25;;;;;;;5.40;2.88;;;1.80;97.40;;;;;;5082470;28;20024;-68
2021/01/05 03:42:51;;;;;;;5.53;3.00;;;1.80;97.40;;;;;;5089140;28;20054;-66
2021/01/05 03:45:24;;;;;;;3.65;2.38;;;1.90;97.40;;;;;;5089852;28;20028;-66
2021/01/05 03:47:49;;;;;;;7.05;3.10;;;1.80;97.40;;;;;;5071961;28;20030;-66
2021/01/05 03:50:16;;;;;;;5.32;2.95;;;1.80;97.40;;;;;;5080663;28;20035;-67
2021/01/05 03:52:42;;;;;;;4.15;2.60;;;1.80;97.40;;;;;;5079732;28;20043;-67
2021/01/05 03:55:09;;;;;;;6.18;3.42;;;1.80;97.40;;;;;;5088740;28;20032;-66
2021/01/05 03:57:35;;;;;;;5.90;3.38;;;1.80;97.40;;;;;;5084838;28;20181;-66
2021/01/05 04:00:00;;;;;;;6.18;3.50;;;1.80;97.40;;;;;;5084799;28;20207;-67
2021/01/05 04:02:26;;;;;;;8.50;3.72;;;1.90;97.40;;;;;;5081257;28;20468;-66
2021/01/05 04:04:52;;;;;;;6.97;3.92;;;1.90;97.40;;;;;;5085534;28;20456;-66
2021/01/05 04:07:18;;;;;;;6.15;3.78;;;1.90;97.50;;;;;;5088222;28;20028;-67
2021/01/05 04:09:44;;;;;;;6.53;3.80;;;1.90;97.50;;;;;;5064951;28;20480;-67
2021/01/05 04:12:09;;;;;;;6.53;3.67;;;1.90;97.50;;;;;;5071824;28;20058;-67
2021/01/05 04:14:36;;;;;;;6.85;3.90;;;1.90;97.50;;;;;;5084425;28;20075;-66
2021/01/05 04:17:02;;;;;;;6.85;3.83;;;1.90;97.50;;;;;;5082783;28;20113;-66
2021/01/05 04:19:27;;;;;;;8.82;4.05;;;1.90;97.50;;;;;;5085945;28;20028;-67
2021/01/05 04:21:53;;;;;;;6.82;4.30;;;1.90;97.50;;;;;;5077349;28;20039;-66
2021/01/05 04:24:19;;;;;;;8.40;4.68;;;1.90;97.50;;;;;;5083921;28;20079;-67
2021/01/05 04:26:45;;;;;;;8.25;4.90;;;1.90;97.50;;;;;;5084354;28;20020;-67
2021/01/05 04:29:12;;;;;;;8.95;4.78;;;2.00;97.50;;;;;;5085558;28;20020;-66
2021/01/05 04:31:43;;;;;;;9.63;5.05;;;2.00;97.50;;;;;;5065728;28;20178;-66
2021/01/05 04:34:10;;;;;;;10.23;5.60;;;2.00;97.50;;;;;;5082131;28;20032;-67
2021/01/05 04:36:35;;;;;;;9.02;4.90;;;2.00;97.50;;;;;;5088321;28;20039;-66
2021/01/05 04:39:01;;;;;;;10.15;5.60;;;2.00;97.50;;;;;;5087303;28;20040;-66
2021/01/05 04:41:30;;;;;;;8.55;5.00;;;2.00;97.50;;;;;;5082330;28;20035;-67
2021/01/05 04:44:03;;;;;;;9.82;5.57;;;2.00;97.50;;;;;;5086441;28;20369;-67
2021/01/05 04:46:46;;;;;;;8.13;5.30;;;2.00;97.50;;;;;;5087877;28;20091;-66
2021/01/05 04:49:42;;;;;;;8.35;5.13;;;2.00;97.50;;;;;;5083021;28;20602;-66
2021/01/05 04:52:12;;;;;;;9.15;5.07;;;2.00;97.50;;;;;;5087543;28;20089;-66
2021/01/05 04:54:46;;;;;;;9.00;5.28;;;2.00;97.50;;;;;;5087260;28;20034;-66
2021/01/05 04:57:18;;;;;;;8.27;5.18;;;2.00;97.50;;;;;;5084174;28;20360;-67
2021/01/05 04:59:47;;;;;;;9.63;4.80;;;2.10;97.50;;;;;;5085156;28;20059;-66
2021/01/05 05:02:29;;;;;;;7.93;4.53;;;2.10;97.50;;;;;;5077527;28;20473;-66
2021/01/05 05:05:03;;;;;;;7.22;4.07;;;2.10;97.50;;;;;;5069750;28;20036;-67
2021/01/05 05:07:58;;;;;;;7.97;5.03;;;2.10;97.50;;;;;;5075252;28;20058;-66
2021/01/05 05:10:33;;;;;;;7.07;4.00;;;2.10;97.50;;;;;;5085113;28;20457;-67
2021/01/05 05:13:18;;;;;;;7.53;4.72;;;2.10;97.50;;;;;;5066080;28;20032;-67
2021/01/05 05:16:18;;;;;;;8.73;4.72;;;2.10;97.40;;;;;;5086180;28;20077;-66
2021/01/05 05:18:50;;;;;;;7.80;4.65;;;2.10;97.40;;;;;;5081168;28;20627;-66
2021/01/05 05:21:45;;;;;;;7.95;4.93;;;2.10;97.40;;;;;;5087144;28;20484;-67
2021/01/05 05:24:24;;;;;;;7.72;4.65;;;2.10;97.40;;;;;;5082117;28;20027;-66
2021/01/05 05:27:13;;;;;;;8.77;4.25;;;2.10;97.40;;;;;;5074834;28;20398;-67
2021/01/05 05:29:45;;;;;;;9.20;4.88;;;2.10;97.40;;;;;;5085124;28;20046;-66
2021/01/05 05:32:19;;;;;;;9.15;5.03;;;2.20;97.40;;;;;;5087362;28;20103;-66
2021/01/05 05:34:58;;;;;;;8.40;5.22;;;2.10;97.40;;;;;;5084747;28;20028;-67
2021/01/05 05:37:46;;;;;;;9.95;5.82;;;2.10;97.40;;;;;;5084938;28;20092;-66
2021/01/05 05:40:20;;;;;;;10.38;6.20;;;2.20;97.40;;;;;;5085497;28;20039;-67
2021/01/05 05:43:06;;;;;;;9.65;6.03;;;2.20;97.40;;;;;;5085775;28;20103;-66
2021/01/05 05:45:49;;;;;;;12.85;5.95;;;2.20;97.30;;;;;;5074686;28;20039;-67
2021/01/05 05:48:30;;;;;;;12.40;6.88;;;2.20;97.30;;;;;;5066827;28;20043;-66
2021/01/05 05:51:09;;;;;;;16.05;6.60;;;2.20;97.10;;;;;;5081534;28;20024;-67
2021/01/05 05:54:06;;;;;;;12.75;6.75;;;2.20;97.10;;;;;;5086106;28;20035;-67
2021/01/05 05:56:50;;;;;;;11.50;6.80;;;2.20;97.00;;;;;;5054835;28;20422;-66
2021/01/05 05:59:18;;;;;;;11.90;6.75;;;2.20;96.90;;;;;;5082486;28;20043;-67
2021/01/05 06:01:44;;;;;;;12.73;6.95;;;2.20;97.00;;;;;;5081486;28;20334;-67
2021/01/05 06:04:12;;;;;;;13.57;7.30;;;2.20;97.00;;;;;;5067410;28;20035;-65
2021/01/05 06:06:39;;;;;;;11.15;6.45;;;2.20;97.10;;;;;;5084681;28;20024;-66
2021/01/05 06:09:05;;;;;;;11.73;6.38;;;2.20;97.10;;;;;;5083380;28;20345;-67
2021/01/05 06:11:33;;;;;;;14.85;7.68;;;2.20;97.00;;;;;;5074702;28;20024;-67
2021/01/05 06:14:01;;;;;;;12.60;6.75;;;2.20;97.10;;;;;;5085574;28;20093;-67
2021/01/05 06:16:29;;;;;;;12.77;7.55;;;2.20;97.10;;;;;;5086686;28;20040;-67
2021/01/05 06:18:55;;;;;;;11.95;6.68;;;2.20;97.20;;;;;;5078351;28;20029;-67
2021/01/05 06:21:21;;;;;;;14.65;7.25;;;2.20;97.00;;;;;;5085434;28;20089;-67
2021/01/05 06:23:46;;;;;;;11.25;7.00;;;2.20;97.00;;;;;;5081501;28;20028;-67
2021/01/05 06:26:19;;;;;;;11.43;6.97;;;2.20;96.90;;;;;;5063358;28;20067;-66
2021/01/05 06:28:46;;;;;;;11.60;6.72;;;2.20;96.90;;;;;;5065947;28;20035;-65
2021/01/05 06:31:12;;;;;;;12.43;6.68;;;2.20;96.90;;;;;;5063223;28;20492;-67
2021/01/05 06:33:38;;;;;;;9.40;5.60;;;2.20;96.80;;;;;;5045226;28;20134;-66
2021/01/05 06:36:04;;;;;;;11.95;7.45;;;2.20;96.60;;;;;;5063924;28;20078;-66
2021/01/05 06:38:29;;;;;;;11.05;6.65;;;2.20;96.50;;;;;;5065074;28;20036;-66
2021/01/05 06:40:55;;;;;;;13.23;6.63;;;2.20;96.60;;;;;;5063448;28;20498;-67
2021/01/05 06:43:20;;;;;;;12.40;7.30;;;2.20;96.70;;;;;;5067158;28;20232;-67
2021/01/05 06:45:46;;;;;;;13.13;7.03;;;2.20;96.70;;;;;;5085643;28;20044;-67
2021/01/05 06:48:12;;;;;;;14.02;7.25;;;2.20;96.70;;;;;;5064644;28;20055;-66
2021/01/05 06:50:37;;;;;;;13.43;6.75;;;2.20;96.80;;;;;;5078909;28;20044;-67
2021/01/05 06:53:03;;;;;;;11.60;6.82;;;2.20;96.80;;;;;;5084793;28;20419;-67
2021/01/05 06:55:29;;;;;;;12.02;7.32;;;2.20;96.60;;;;;;5086726;28;20107;-66
2021/01/05 06:57:54;;;;;;;11.40;6.60;;;2.20;96.50;;;;;;5085844;28;20392;-67
2021/01/05 07:00:25;;;;;;;12.85;7.43;;;2.20;96.60;;;;;;5083170;28;20101;-67
2021/01/05 07:02:51;;;;;;;;;;;2.30;96.40;;;;;;5086317;28;20039;-66
2021/01/05 07:05:17;;;;;;;12.98;7.80;;;2.30;96.30;;;;;;5084635;28;19912;-66
2021/01/05 07:07:44;;;;;;;15.25;8.13;;;2.20;96.30;;;;;;5078560;28;20029;-67
2021/01/05 07:10:11;;;;;;;14.05;7.95;;;2.20;96.40;;;;;;5079458;28;20062;-67
2021/01/05 07:12:36;;;;;;;14.60;7.93;;;2.20;96.20;;;;;;5075805;28;20033;-67
2021/01/05 07:15:07;;;;;;;12.77;7.70;;;2.20;96.10;;;;;;5082841;28;20073;-67
2021/01/05 07:17:33;;;;;;;17.90;8.93;;;2.30;96.20;;;;;;5083989;28;20050;-66
2021/01/05 07:19:58;;;;;;;13.13;8.45;;;2.30;96.20;;;;;;5081319;28;20468;-67
2021/01/05 07:22:24;;;;;;;11.77;7.45;;;2.30;96.30;;;;;;5085747;28;20054;-66
2021/01/05 07:24:49;;;;;;;14.48;8.20;;;2.30;96.30;;;;;;5081471;28;20028;-67
2021/01/05 07:27:16;;;;;;;13.73;8.15;;;2.30;96.40;;;;;;5074437;28;20101;-66
2021/01/05 07:29:41;;;;;;;13.95;8.38;;;2.30;96.10;;;;;;5069851;28;20029;-67
2021/01/05 07:32:07;;;;;;;13.80;8.07;;;2.30;96.20;;;;;;5065361;28;20035;-67
2021/01/05 07:34:37;;;;;;;14.45;8.38;;;2.30;96.30;;;;;;5064708;28;20135;-66
2021/01/05 07:37:05;;;;;;;13.15;8.98;;;2.30;96.40;;;;;;5085336;28;20051;-66
2021/01/05 07:39:33;;;;;;;13.18;8.57;;;2.30;96.30;;;;;;5082385;28;20028;-67
2021/01/05 07:42:17;;;;;;;17.60;9.20;;;2.40;96.30;;;;;;5084301;28;20024;-67
2021/01/05 07:44:45;;;;;;;13.02;7.88;;;2.30;96.30;;;;;;5066547;28;20082;-66
2021/01/05 07:47:11;;;;;;;14.13;8.30;;;2.40;96.20;;;;;;5085159;28;20361;-67
2021/01/05 07:49:37;;;;;;;12.65;8.40;;;2.40;96.30;;;;;;5083734;28;20039;-67
2021/01/05 07:52:19;;;;;;;14.40;8.55;;;2.40;95.90;;;;;;5081054;28;20117;-66
2021/01/05 07:54:45;;;;;;;14.65;8.93;;;2.40;95.90;;;;;;5076865;28;20403;-67
2021/01/05 07:57:10;;;;;;;14.90;9.10;;;2.30;96.00;;;;;;5084234;28;20198;-67
2021/01/05 07:59:36;;;;;;;13.50;8.35;;;2.40;96.20;;;;;;5080865;28;20396;-66
2021/01/05 08:02:01;;;;;;;16.08;8.73;;;2.40;96.20;;;;;;5085677;28;20031;-66
2021/01/05 08:04:27;;;;;;;15.73;8.82;;;2.40;96.20;;;;;;5065753;28;20437;-66
2021/01/05 08:06:52;;;;;;;17.85;9.75;;;2.40;96.10;;;;;;5076254;28;20434;-66
2021/01/05 08:09:18;;;;;;;16.10;9.45;;;2.40;96.20;;;;;;5086239;28;20399;-67
2021/01/05 08:11:44;;;;;;;19.35;9.95;;;2.50;96.40;;;;;;5087294;28;20107;-66
2021/01/05 08:14:09;;;;;;;13.85;8.60;;;2.40;96.40;;;;;;5084483;28;20516;-67
2021/01/05 08:16:35;;;;;;;14.95;9.27;;;2.40;96.40;;;;;;5088094;28;20123;-66
2021/01/05 08:19:00;;;;;;;15.45;9.80;;;2.50;96.50;;;;;;5087718;28;20084;-67
2021/01/05 08:21:26;;;;;;;14.82;9.05;;;2.50;96.50;;;;;;5088040;28;20020;-67
2021/01/05 08:23:52;;;;;;;14.38;8.38;;;2.50;96.40;;;;;;5087004;28;20055;-66
2021/01/05 08:26:18;;;;;;;19.30;9.82;;;2.50;96.40;;;;;;5068349;28;20043;-66
2021/01/05 08:28:46;;;;;;;17.27;9.10;;;2.50;96.50;;;;;;5082573;28;20062;-66
2021/01/05 08:31:11;;;;;;;14.23;8.32;;;2.60;96.50;;;;;;5088062;28;20096;-66
2021/01/05 08:33:37;;;;;;;16.00;8.20;;;2.60;96.50;;;;;;5086668;28;20083;-67
2021/01/05 08:36:03;;;;;;;13.27;8.18;;;2.60;96.60;;;;;;5069674;28;20028;-66
2021/01/05 08:38:29;;;;;;;15.32;9.20;;;2.50;96.60;;;;;;5086384;28;20028;-66
2021/01/05 08:40:54;;;;;;;18.00;8.57;;;2.60;96.70;;;;;;5087663;28;20480;-66
2021/01/05 08:43:20;;;;;;;15.63;8.27;;;2.60;96.80;;;;;;5085875;28;20036;-67
2021/01/05 08:45:45;;;;;;;15.68;8.18;;;2.60;96.90;;;;;;5079594;28;20035;-66
2021/01/05 08:48:11;;;;;;;16.38;8.48;;;2.60;96.90;;;;;;5084620;28;20103;-66
2021/01/05 08:50:36;;;;;;;12.88;7.05;;;2.60;96.90;;;;;;5088677;28;20303;-67
2021/01/05 08:53:05;;;;;;;14.70;6.82;;;2.60;96.90;;;;;;5104084;28;20115;-67
2021/01/05 08:55:35;;;;;;;15.05;7.38;;;2.60;96.90;;;;;;5091248;28;20097;-67
2021/01/05 08:58:00;;;;;;;12.98;6.68;;;2.60;97.00;;;;;;5093994;28;20177;-66
2021/01/05 09:00:26;;;;;;;14.40;6.55;;;2.60;97.00;;;;;;5064691;28;20488;-66
2021/01/05 09:02:51;;;;;;;10.73;5.63;;;2.60;97.10;;;;;;5090367;28;20025;-67
2021/01/05 09:05:17;;;;;;;12.88;6.28;;;2.60;97.10;;;;;;5093163;28;20171;-66
2021/01/05 09:07:43;;;;;;;11.85;6.10;;;2.60;97.20;;;;;;5053633;28;20040;-66
2021/01/05 09:10:20;;;;;;;15.27;6.90;;;2.60;97.20;;;;;;5062774;28;20107;-66
2021/01/05 09:12:45;;;;;;;18.25;7.72;;;2.60;97.30;;;;;;5066672;28;20411;-67
2021/01/05 09:15:14;;;;;;;11.20;5.85;;;2.60;97.30;;;;;;5066789;28;20028;-66
2021/01/05 09:17:43;;;;;;;12.02;6.05;;;2.60;97.30;;;;;;5067502;28;20095;-66
2021/01/05 09:20:12;;;;;;;9.73;5.95;;;2.70;97.30;;;;;;5066100;28;20060;-67
2021/01/05 09:22:37;;;;;;;13.80;6.70;;;2.70;97.40;;;;;;5066247;28;20020;-67
2021/01/05 09:25:03;;;;;;;11.38;5.95;;;2.70;97.40;;;;;;5063335;28;20025;-66
2021/01/05 09:27:29;;;;;;;12.93;5.72;;;2.70;97.40;;;;;;5067260;28;20386;-66
2021/01/05 09:29:54;;;;;;;11.43;5.65;;;2.70;97.40;;;;;;5066122;28;20024;-66
2021/01/05 09:32:20;;;;;;;12.65;6.18;;;2.70;97.40;;;;;;5066140;28;20051;-66
2021/01/05 09:34:45;;;;;;;11.10;5.75;;;2.70;97.40;;;;;;5062495;28;20453;-66
2021/01/05 09:37:11;;;;;;;11.93;5.88;;;2.70;97.30;;;;;;5057868;28;20150;-66
2021/01/05 09:39:36;;;;;;;11.88;6.53;;;2.70;97.30;;;;;;5059967;28;20039;-66
2021/01/05 09:42:04;;;;;;;13.48;6.85;;;2.70;97.40;;;;;;5066680;28;20409;-66
2021/01/05 09:44:31;;;;;;;12.77;6.63;;;2.70;97.40;;;;;;5065263;28;20028;-66
2021/01/05 09:47:02;;;;;;;14.77;6.78;;;2.70;97.40;;;;;;5066260;28;20061;-66
2021/01/05 09:49:29;;;;;;;11.82;6.68;;;2.70;97.40;;;;;;5065069;28;20020;-66
2021/01/05 09:52:01;;;;;;;11.77;6.95;;;2.70;97.40;;;;;;5062978;28;20405;-66
2021/01/05 09:54:28;;;;;;;9.07;5.72;;;2.70;97.40;;;;;;5062530;28;20141;-66
2021/01/05 09:56:55;;;;;;;13.10;6.88;;;2.70;97.40;;;;;;5063126;28;20357;-66
2021/01/05 09:59:22;;;;;;;14.60;7.13;;;2.80;97.50;;;;;;5063783;28;20552;-66
2021/01/05 10:01:48;;;;;;;11.70;6.13;;;2.80;97.50;;;;;;5064499;28;20036;-66
2021/01/05 10:04:15;;;;;;;12.32;6.60;;;2.80;97.40;;;;;;5062114;28;20144;-66
2021/01/05 10:06:40;;;;;;;11.05;7.05;;;2.80;97.40;;;;;;5043115;28;20028;-66
2021/01/05 10:09:09;;;;;;;15.45;7.05;;;2.80;97.40;;;;;;5062887;28;20359;-66
2021/01/05 10:11:40;;;;;;;10.65;6.18;;;2.80;97.40;;;;;;5046561;28;20051;-66
2021/01/05 10:14:07;;;;;;;13.27;6.57;;;2.70;97.40;;;;;;5061800;28;20024;-66
2021/01/05 10:16:32;;;;;;;11.23;6.22;;;2.70;97.40;;;;;;5065606;28;20088;-66
2021/01/05 10:18:59;;;;;;;10.70;6.50;;;2.70;97.40;;;;;;5065114;28;20211;-66
2021/01/05 10:21:32;;;;;;;10.98;6.22;;;2.70;97.40;;;;;;5060575;28;20032;-66
2021/01/05 10:23:57;;;;;;;13.45;6.53;;;2.80;97.40;;;;;;5053898;28;20357;-66
2021/01/05 10:26:23;;;;;;;11.60;7.07;;;2.80;97.40;;;;;;5065686;28;20040;-66
2021/01/05 10:28:48;;;;;;;11.05;6.88;;;2.80;97.50;;;;;;5047370;28;20464;-66
2021/01/05 10:31:14;;;;;;;13.77;7.93;;;2.80;97.50;;;;;;5045811;28;20028;-66
2021/01/05 10:33:39;;;;;;;11.15;7.57;;;2.90;97.50;;;;;;5046297;28;20033;-66
2021/01/05 10:36:06;;;;;;;14.23;7.53;;;2.90;97.50;;;;;;5065181;28;20052;-66
2021/01/05 10:38:31;;;;;;;13.77;6.97;;;2.90;97.50;;;;;;5057729;28;20033;-66
2021/01/05 10:40:57;;;;;;;13.10;7.95;;;2.90;97.50;;;;;;5061593;28;20403;-66
2021/01/05 10:43:22;;;;;;;13.77;6.47;;;2.90;97.50;;;;;;5063507;28;20029;-66
2021/01/05 10:45:48;;;;;;;11.90;6.93;;;3.00;97.50;;;;;;5064856;28;20485;-66
2021/01/05 10:48:14;;;;;;;10.32;6.00;;;3.00;97.50;;;;;;5058700;28;20426;-67
2021/01/05 10:50:40;;;;;;;10.82;7.07;;;3.00;97.40;;;;;;5045138;28;20035;-66
2021/01/05 10:53:06;;;;;;;10.88;6.40;;;3.00;97.40;;;;;;5044441;28;20434;-66
2021/01/05 10:55:32;;;;;;;10.35;5.72;;;3.00;97.40;;;;;;5061834;28;20106;-66
2021/01/05 10:57:57;;;;;;;11.23;6.60;;;3.00;97.40;;;;;;5062930;28;20032;-66
2021/01/05 11:00:23;;;;;;;11.60;6.75;;;3.00;97.40;;;;;;5059213;28;20029;-66
2021/01/05 11:02:49;;;;;;;9.85;5.68;;;3.10;97.40;;;;;;5053434;28;20511;-66
2021/01/05 11:05:16;;;;;;;10.40;6.75;;;3.00;97.30;;;;;;5043367;28;20439;-67
2021/01/05 11:07:43;;;;;;;10.20;6.53;;;3.00;97.30;;;;;;5042827;28;20029;-66
2021/01/05 11:10:10;;;;;;;16.55;7.07;;;3.10;97.40;;;;;;5056634;28;20025;-67
2021/01/05 11:12:36;;;;;;;10.15;6.53;;;3.10;97.40;;;;;;5062460;28;20028;-66
2021/01/05 11:15:02;;;;;;;11.52;6.60;;;3.10;97.40;;;;;;5064025;28;20051;-67
2021/01/05 11:17:28;;;;;;;11.63;6.30;;;3.10;97.40;;;;;;5064773;28;20614;-67
2021/01/05 11:19:53;;;;;;;12.88;6.68;;;3.10;97.40;;;;;;5063964;28;20123;-67
2021/01/05 11:22:19;;;;;;;12.70;6.78;;;3.10;97.40;;;;;;5064622;28;20016;-67
2021/01/05 11:24:45;;;;;;;10.00;5.85;;;3.10;97.40;;;;;;5055831;28;20017;-67
2021/01/05 11:27:14;;;;;;;11.20;6.82;;;3.10;97.30;;;;;;5059896;28;20017;-67
2021/01/05 11:29:39;;;;;;;9.80;6.15;;;3.10;97.30;;;;;;5056193;28;20354;-67
2021/01/05 11:32:08;;;;;;;9.85;5.90;;;3.20;97.30;;;;;;5050471;28;20033;-67
2021/01/05 11:34:34;;;;;;;11.10;6.75;;;3.20;97.30;;;;;;5062253;28;20548;-67
2021/01/05 11:37:05;;;;;;;8.90;5.43;;;3.20;97.30;;;;;;5068143;28;20065;-67
2021/01/05 11:39:31;;;;;;;11.93;6.57;;;3.20;97.30;;;;;;5063534;28;20101;-67
2021/01/05 11:42:04;;;;;;;8.88;5.60;;;3.30;97.40;;;;;;5050490;28;20402;-67
2021/01/05 11:44:30;;;;;;;12.32;6.35;;;3.30;97.30;;;;;;5067277;28;20279;-67
2021/01/05 11:46:56;;;;;;;10.23;6.50;;;3.30;97.20;;;;;;5067777;28;20025;-67
2021/01/05 11:49:23;;;;;;;9.98;6.03;;;3.30;97.20;;;;;;5057290;28;20040;-66
2021/01/05 11:51:51;;;;;;;10.38;6.57;;;3.20;97.00;;;;;;5063522;28;20047;-66
2021/01/05 11:54:17;;;;;;;10.80;6.25;;;3.30;97.00;;;;;;5068091;28;20090;-67
2021/01/05 11:56:43;;;;;;;12.00;6.03;;;3.30;97.00;;;;;;5066613;28;20040;-66
2021/01/05 11:59:11;;;;;;;12.18;5.68;;;3.30;97.00;;;;;;5066921;28;20021;-67
2021/01/05 12:01:38;;;;;;;9.85;5.95;;;3.30;97.00;;;;;;5065261;28;20116;-67
2021/01/05 12:04:05;;;;;;;10.30;5.78;;;3.30;96.90;;;;;;5069015;28;20464;-67
2021/01/05 12:06:31;;;;;;;10.95;5.75;;;3.30;96.80;;;;;;5082685;28;20036;-67
2021/01/05 12:08:56;;;;;;;9.20;5.88;;;3.30;96.80;;;;;;5056612;28;20025;-67
2021/01/05 12:11:29;;;;;;;10.70;6.40;;;3.30;96.80;;;;;;5048985;28;20040;-67
2021/01/05 12:13:55;;;;;;;8.40;4.90;;;3.30;96.80;;;;;;5069700;28;20070;-66
2021/01/05 12:16:29;;;;;;;8.65;5.53;;;3.30;96.80;;;;;;5048783;28;20032;-67
2021/01/05 12:18:57;;;;;;;9.20;5.35;;;3.30;96.70;;;;;;5066056;28;20414;-67
2021/01/05 12:21:42;;;;;;;11.57;5.68;;;3.30;96.70;;;;;;5050390;28;20127;-66
2021/01/05 12:24:13;;;;;;;7.43;5.18;;;3.40;96.80;;;;;;5048895;28;20067;-67
2021/01/05 12:26:39;;;;;;;9.90;6.15;;;3.40;96.70;;;;;;5065857;28;20029;-67
2021/01/05 12:29:14;;;;;;;9.93;6.18;;;3.40;96.60;;;;;;5068558;28;20215;-67
2021/01/05 12:31:43;;;;;;;7.65;5.20;;;3.50;96.60;;;;;;5066712;28;20039;-67
2021/01/05 12:34:09;;;;;;;9.55;5.40;;;3.50;96.60;;;;;;5066727;28;20035;-67
2021/01/05 12:36:36;;;;;;;10.95;5.20;;;3.50;96.40;;;;;;5062843;28;20028;-67
2021/01/05 12:39:04;;;;;;;9.80;5.65;;;3.50;96.30;;;;;;5048697;28;20056;-67
2021/01/05 12:41:33;;;;;;;9.02;5.57;;;3.50;96.40;;;;;;5063509;28;20068;-67
2021/01/05 12:43:59;;;;;;;12.15;5.25;;;3.60;96.40;;;;;;5047026;28;20377;-67
2021/01/05 12:46:26;;;;;;;7.20;4.80;;;3.50;96.30;;;;;;5061199;28;20016;-67
2021/01/05 12:48:52;;;;;;;8.95;4.85;;;3.60;96.20;;;;;;5066039;28;20333;-67
2021/01/05 12:51:32;;;;;;;8.77;4.68;;;3.50;96.20;;;;;;5059484;28;20056;-68
2021/01/05 12:53:57;;;;;;;10.30;5.40;;;3.50;96.10;;;;;;5064240;28;20028;-67
2021/01/05 12:56:23;;;;;;;8.32;4.28;;;3.60;96.20;;;;;;5066017;28;20051;-67
2021/01/05 12:58:49;;;;;;;7.85;4.88;;;3.50;96.00;;;;;;5049712;28;20036;-67
2021/01/05 13:01:16;;;;;;;8.75;4.70;;;3.50;95.90;;;;;;5064795;28;20016;-67
2021/01/05 13:03:43;;;;;;;6.75;4.35;;;3.50;96.00;;;;;;5060746;28;20099;-67
2021/01/05 13:06:09;;;;;;;8.20;4.78;;;3.60;96.00;;;;;;5066005;28;20089;-67